Time;durP1;ratioP1;P1;durP2;ratioP2;P2;SDS_P1;SDS_P2;PMS_P1;PMS_P2;Temp;Humidity;BMP_temperature;BMP_pressure;BME280_temperature;BME280_humidity;BME280_pressure;Samples;Min_cycle;Max_cycle;Signal;HPM_P1;HPM_P2
2021/04/26 00:04:02;;;;;;;;;;;;;;;;;;;;;
2021/04/26 00:20:43;;;;;;;3.70;2.93;;;9.40;54.80;;;;;;4929249;29;20487;-87
2021/04/26 00:52:18;;;;;;;4.90;3.30;;;9.00;56.10;;;;;;4881050;29;20439;-88
2021/04/26 00:59:19;;;;;;;;;;;;;;;;;;;;;
2021/04/26 01:12:29;;;;;;;6.57;3.40;;;9.00;57.20;;;;;;4809962;29;20460;-87
2021/04/26 01:40:23;;;;;;;6.07;3.57;;;8.20;59.60;;;;;;4817964;29;20528;-87
2021/04/26 01:54:21;;;;;;;;;;;;;;;;;;;;;
2021/04/26 02:07:28;;;;;;;6.80;5.00;;;7.90;62.10;;;;;;4807250;29;20452;-89
2021/04/26 02:24:50;;;;;;;8.70;4.50;;;8.00;62.70;;;;;;4821127;29;20887;-87
2021/04/26 02:28:07;;;;;;;7.73;5.37;;;8.00;63.00;;;;;;4874989;29;20549;-87
2021/04/26 02:34:41;;;;;;;12.23;6.30;;;7.90;63.60;;;;;;4897939;29;20556;-87
2021/04/26 02:41:19;;;;;;;11.13;6.43;;;7.80;63.70;;;;;;4950458;28;20483;-87
2021/04/26 02:51:16;;;;;;;7.43;5.23;;;7.80;63.70;;;;;;4997221;28;20581;-88
2021/04/26 02:54:59;;;;;;;11.03;6.27;;;7.80;63.70;;;;;;5015169;28;20485;-88
2021/04/26 03:07:35;;;;;;;9.23;5.90;;;7.60;62.70;;;;;;5025907;28;20802;-87
2021/04/26 03:10:50;;;;;;;7.23;5.57;;;7.50;63.10;;;;;;5028132;28;20438;-86
2021/04/26 03:17:08;;;;;;;7.93;5.70;;;7.60;63.10;;;;;;4926476;28;21024;-88
2021/04/26 03:23:33;;;;;;;11.50;5.83;;;7.40;62.70;;;;;;5013478;28;20560;-87
2021/04/26 03:33:14;;;;;;;10.37;7.20;;;7.30;62.60;;;;;;4937700;29;20522;-87
2021/04/26 03:36:19;;;;;;;12.50;5.73;;;7.30;62.40;;;;;;4960696;28;20516;-88
2021/04/26 03:45:56;;;;;;;8.30;5.93;;;7.20;62.00;;;;;;4958790;29;20519;-88
2021/04/26 04:04:22;;;;;;;8.80;6.07;;;7.00;61.60;;;;;;4970539;28;20591;-87
2021/04/26 04:10:47;;;;;;;7.67;6.10;;;6.90;61.40;;;;;;5012876;28;20522;-88
2021/04/26 04:16:56;;;;;;;6.27;5.57;;;6.90;61.70;;;;;;5044143;28;20443;-87
2021/04/26 04:30:08;;;;;;;6.77;5.67;;;6.90;62.00;;;;;;4976844;28;20447;-87
2021/04/26 04:33:03;;;;;;;6.90;6.07;;;7.00;61.80;;;;;;4986817;28;20839;-87
2021/04/26 04:39:50;;;;;;;7.67;5.60;;;7.10;61.80;;;;;;4971353;28;20489;-87
2021/04/26 04:46:41;;;;;;;13.43;6.83;;;7.10;62.60;;;;;;4938223;28;20535;-87
2021/04/26 04:49:26;;;;;;;6.87;6.10;;;7.30;62.90;;;;;;5008848;28;20975;-87
2021/04/26 05:05:13;;;;;;;8.10;5.47;;;9.20;57.80;;;;;;4994325;28;20487;-87
2021/04/26 05:21:26;;;;;;;8.10;5.10;;;9.80;54.50;;;;;;5035620;28;20520;-88
2021/04/26 05:28:29;;;;;;;;;;;;;;;;;;;;;
2021/04/26 05:31:54;;;;;;;;;;;;;;;;;;;;;
2021/04/26 06:00:32;;;;;;;;;;;;;;;;;;;;;
2021/04/26 06:55:30;;;;;;;5.83;5.23;;;17.30;36.60;;;;;;4823125;29;20571;-88
2021/04/26 07:05:17;;;;;;;7.73;5.13;;;17.60;36.80;;;;;;4903417;29;20448;-88
2021/04/26 07:08:19;;;;;;;6.53;5.87;;;17.40;36.60;;;;;;4980212;28;20469;-88
2021/04/26 07:11:49;;;;;;;8.97;5.60;;;17.00;36.90;;;;;;5029616;28;20445;-88
2021/04/26 07:15:12;;;;;;;8.50;5.83;;;18.20;36.60;;;;;;5011836;28;20457;-89
2021/04/26 07:21:45;;;;;;;7.27;5.70;;;18.50;34.80;;;;;;5007790;28;20482;-89
2021/04/26 07:24:41;;;;;;;8.50;5.57;;;19.20;35.70;;;;;;4911423;29;20457;-88
2021/04/26 07:52:16;;;;;;;7.30;5.50;;;21.90;31.30;;;;;;4796362;29;20536;-88
2021/04/26 08:06:12;;;;;;;;;;;;;;;;;;;;;
2021/04/26 08:13:09;;;;;;;6.37;5.77;;;22.30;31.30;;;;;;4957944;29;20449;-88
2021/04/26 08:32:35;;;;;;;8.63;6.47;;;20.20;32.60;;;;;;4871687;29;20560;-90
2021/04/26 08:35:03;;;;;;;6.83;5.57;;;19.40;34.10;;;;;;4963219;28;20570;-92
2021/04/26 08:37:29;;;;;;;6.73;6.07;;;20.20;33.70;;;;;;5040140;28;20450;-91
2021/04/26 08:39:55;;;;;;;6.47;5.87;;;21.00;32.70;;;;;;5040447;28;20473;-91
2021/04/26 08:42:21;;;;;;;5.90;4.90;;;20.40;32.90;;;;;;5041702;28;20443;-94
2021/04/26 08:44:48;;;;;;;8.10;6.13;;;20.90;32.80;;;;;;5057739;28;20456;-90
2021/04/26 08:47:17;;;;;;;8.57;7.60;;;21.60;31.80;;;;;;5047692;28;20503;-90
2021/04/26 08:49:45;;;;;;;8.30;6.23;;;21.20;32.10;;;;;;5065680;28;20457;-89
2021/04/26 08:52:11;;;;;;;6.90;6.20;;;22.10;31.20;;;;;;5044232;28;20442;-89
2021/04/26 08:54:37;;;;;;;6.60;5.90;;;22.40;30.70;;;;;;5046359;28;20458;-90
2021/04/26 08:57:04;;;;;;;6.30;5.70;;;22.70;30.50;;;;;;5042014;28;20492;-90
2021/04/26 08:59:30;;;;;;;12.73;7.50;;;22.90;30.60;;;;;;5039851;28;20453;-89
2021/04/26 09:02:01;;;;;;;6.60;5.87;;;23.60;30.10;;;;;;5038285;28;20853;-89
2021/04/26 09:04:28;;;;;;;8.07;5.87;;;24.80;29.30;;;;;;5037811;28;20460;-86
2021/04/26 09:06:58;;;;;;;7.03;6.17;;;26.00;28.80;;;;;;5037290;28;20444;-85
2021/04/26 09:09:39;;;;;;;9.63;6.90;;;27.40;27.60;;;;;;5036229;28;20803;-85
2021/04/26 09:12:07;;;;;;;7.13;5.47;;;28.10;26.90;;;;;;5046372;28;20445;-86
2021/04/26 09:14:38;;;;;;;6.80;5.73;;;27.80;26.10;;;;;;5036652;28;20524;-86
2021/04/26 09:17:34;;;;;;;6.53;5.90;;;27.60;26.60;;;;;;5035143;28;20488;-86
2021/04/26 09:20:22;;;;;;;9.90;7.00;;;27.90;26.80;;;;;;5034649;28;20455;-86
2021/04/26 09:22:50;;;;;;;10.33;6.90;;;27.90;26.00;;;;;;5046357;28;20506;-86
2021/04/26 09:25:22;;;;;;;6.13;5.57;;;28.50;26.20;;;;;;5035099;28;20459;-85
2021/04/26 09:27:57;;;;;;;7.47;6.10;;;29.00;25.50;;;;;;5035055;28;20465;-86
2021/04/26 09:30:56;;;;;;;6.40;5.83;;;28.60;25.50;;;;;;5035304;28;20440;-86
2021/04/26 09:33:29;;;;;;;7.03;6.40;;;29.80;25.20;;;;;;5033657;28;20438;-87
2021/04/26 09:36:01;;;;;;;6.20;5.67;;;30.30;24.40;;;;;;5035022;28;21095;-86
2021/04/26 09:38:29;;;;;;;6.50;5.90;;;30.60;24.70;;;;;;5035693;28;20490;-87
2021/04/26 09:41:20;;;;;;;6.10;5.60;;;31.20;24.10;;;;;;5065989;28;20642;-87
2021/04/26 09:43:51;;;;;;;7.97;6.00;;;28.70;24.70;;;;;;5063447;28;20459;-86
2021/04/26 09:46:19;;;;;;;7.07;6.43;;;26.30;26.70;;;;;;5050655;28;20453;-86
2021/04/26 09:48:46;;;;;;;6.07;5.57;;;27.20;27.20;;;;;;5047550;28;20473;-86
2021/04/26 09:51:17;;;;;;;7.37;6.77;;;28.80;26.30;;;;;;5037252;28;20437;-86
2021/04/26 09:53:51;;;;;;;6.60;5.70;;;30.20;24.70;;;;;;5043678;28;20453;-85
2021/04/26 09:56:19;;;;;;;7.27;6.30;;;30.80;24.30;;;;;;5038998;28;20437;-86
2021/04/26 09:58:47;;;;;;;6.17;5.57;;;29.90;23.60;;;;;;5042594;28;20470;-85
2021/04/26 10:01:14;;;;;;;8.23;6.20;;;28.60;25.40;;;;;;5036770;28;20469;-86
2021/04/26 10:03:41;;;;;;;6.93;6.23;;;29.10;24.90;;;;;;5035315;28;20444;-86
2021/04/26 10:06:08;;;;;;;6.50;5.90;;;29.60;24.60;;;;;;5034029;28;20499;-85
2021/04/26 10:08:36;;;;;;;6.17;5.57;;;29.10;25.00;;;;;;5044335;28;21001;-86
2021/04/26 10:11:03;;;;;;;9.63;6.50;;;30.50;24.70;;;;;;5057780;28;20942;-86
2021/04/26 10:13:32;;;;;;;7.37;6.67;;;30.90;23.90;;;;;;5048364;28;20538;-85
2021/04/26 10:16:00;;;;;;;6.67;6.03;;;32.00;23.40;;;;;;5035282;28;20461;-86
2021/04/26 10:18:34;;;;;;;8.67;6.70;;;32.20;23.20;;;;;;5038695;28;20495;-86
2021/04/26 10:21:02;;;;;;;6.57;5.20;;;30.80;23.80;;;;;;5033740;28;20481;-87
2021/04/26 10:23:40;;;;;;;7.13;6.20;;;31.10;23.50;;;;;;5035451;28;20845;-86
2021/04/26 10:26:08;;;;;;;6.03;5.50;;;31.40;23.50;;;;;;5043423;28;20450;-86
2021/04/26 10:28:35;;;;;;;7.60;6.67;;;31.90;23.30;;;;;;5054823;28;20464;-86
2021/04/26 10:31:07;;;;;;;6.40;5.90;;;31.90;22.70;;;;;;5056074;28;20475;-86
2021/04/26 10:34:07;;;;;;;6.07;5.57;;;32.10;23.20;;;;;;5037496;28;20963;-86
2021/04/26 10:36:45;;;;;;;7.60;6.80;;;32.30;22.40;;;;;;5040464;28;20443;-86
2021/04/26 10:39:13;;;;;;;6.73;6.13;;;31.70;22.60;;;;;;5037332;28;20454;-86
2021/04/26 10:41:58;;;;;;;7.73;5.97;;;31.40;23.20;;;;;;5020389;28;20504;-85
2021/04/26 10:44:49;;;;;;;7.40;6.50;;;31.30;23.60;;;;;;5037277;28;20464;-86
2021/04/26 10:47:17;;;;;;;7.83;6.57;;;32.10;23.30;;;;;;5034358;28;20496;-86
2021/04/26 10:49:45;;;;;;;9.13;6.10;;;32.00;22.80;;;;;;5050357;28;20425;-87
2021/04/26 10:52:34;;;;;;;6.50;5.90;;;31.20;22.60;;;;;;5060613;28;20429;-86
2021/04/26 10:55:02;;;;;;;8.07;7.27;;;30.20;24.40;;;;;;5062308;28;20422;-86
2021/04/26 10:57:33;;;;;;;9.00;6.93;;;30.10;24.00;;;;;;5057480;28;20445;-86
2021/04/26 11:00:37;;;;;;;8.53;7.67;;;30.70;23.70;;;;;;5057177;28;20448;-88
2021/04/26 11:03:34;;;;;;;9.27;6.50;;;30.50;23.40;;;;;;5056136;28;20431;-86
2021/04/26 11:06:18;;;;;;;6.70;6.10;;;31.90;22.80;;;;;;5069760;28;20425;-87
2021/04/26 11:09:06;;;;;;;6.10;5.50;;;30.00;23.40;;;;;;5075997;28;20479;-86
2021/04/26 11:11:41;;;;;;;6.43;5.93;;;31.40;23.30;;;;;;5066393;28;20453;-88
2021/04/26 11:14:19;;;;;;;6.47;5.80;;;32.00;23.10;;;;;;5062607;28;20460;-87
2021/04/26 11:16:58;;;;;;;7.00;6.27;;;32.70;22.30;;;;;;5072308;28;20459;-87
2021/04/26 11:19:25;;;;;;;7.20;6.57;;;33.00;21.20;;;;;;5075755;28;20623;-85
2021/04/26 11:22:03;;;;;;;7.37;6.60;;;31.30;22.30;;;;;;5040188;28;20508;-85
2021/04/26 11:24:50;;;;;;;6.47;5.90;;;29.80;23.10;;;;;;5039114;28;20456;-87
2021/04/26 11:27:24;;;;;;;9.50;7.17;;;29.70;24.10;;;;;;5045035;28;20461;-85
2021/04/26 11:30:15;;;;;;;6.80;6.10;;;29.90;23.50;;;;;;5060800;28;20444;-87
2021/04/26 11:33:20;;;;;;;6.73;5.90;;;29.90;24.50;;;;;;5056571;28;20444;-87
2021/04/26 11:36:14;;;;;;;5.70;5.20;;;31.60;23.40;;;;;;5054494;28;20460;-87
2021/04/26 11:38:45;;;;;;;7.43;6.83;;;30.50;23.40;;;;;;5076832;28;20454;-87
2021/04/26 11:41:12;;;;;;;6.37;5.87;;;31.90;23.00;;;;;;5062355;28;20480;-87
2021/04/26 11:43:46;;;;;;;7.03;5.73;;;32.60;22.30;;;;;;5076334;28;20453;-87
2021/04/26 11:46:14;;;;;;;5.83;5.33;;;34.30;21.30;;;;;;5070604;28;20452;-87
2021/04/26 11:48:40;;;;;;;6.33;5.83;;;34.80;21.10;;;;;;5058387;28;20460;-87
2021/04/26 11:51:06;;;;;;;6.03;5.53;;;34.30;20.60;;;;;;5057254;28;20807;-87
2021/04/26 11:53:34;;;;;;;6.33;5.67;;;32.60;20.70;;;;;;5057738;28;20821;-87
2021/04/26 11:56:11;;;;;;;6.53;5.80;;;32.50;21.50;;;;;;5057079;28;20963;-87
2021/04/26 11:58:38;;;;;;;6.40;5.80;;;32.10;21.20;;;;;;5056406;28;20475;-86
2021/04/26 12:01:09;;;;;;;8.17;5.13;;;30.10;22.00;;;;;;5057879;28;20503;-87
2021/04/26 12:03:52;;;;;;;7.80;6.13;;;28.60;23.70;;;;;;5058147;28;21000;-87
2021/04/26 12:06:19;;;;;;;6.70;5.97;;;29.40;23.10;;;;;;5057404;28;20452;-87
2021/04/26 12:08:46;;;;;;;9.60;5.60;;;30.00;22.30;;;;;;5057684;28;20491;-86
2021/04/26 12:11:17;;;;;;;6.93;5.10;;;30.00;22.40;;;;;;5056900;28;20444;-86
2021/04/26 12:13:43;;;;;;;7.10;6.40;;;30.00;23.10;;;;;;5035845;28;20460;-87
2021/04/26 12:16:10;;;;;;;6.83;6.23;;;31.60;22.00;;;;;;5036895;28;20462;-87
2021/04/26 12:18:38;;;;;;;6.83;6.23;;;31.70;21.20;;;;;;5042918;28;20466;-86
2021/04/26 12:21:06;;;;;;;6.27;5.80;;;31.80;21.50;;;;;;5058859;28;20496;-87
2021/04/26 12:23:35;;;;;;;6.83;6.10;;;32.60;21.30;;;;;;5046126;28;20451;-87
2021/04/26 12:26:02;;;;;;;7.57;5.30;;;32.20;21.10;;;;;;5057398;28;20445;-87
2021/04/26 12:28:41;;;;;;;6.13;5.50;;;33.40;20.70;;;;;;5038084;28;20514;-87
2021/04/26 12:31:18;;;;;;;7.00;5.03;;;33.80;21.10;;;;;;5036681;28;20872;-87
2021/04/26 12:33:45;;;;;;;5.87;5.13;;;34.00;20.10;;;;;;5036836;28;20444;-87
2021/04/26 12:36:12;;;;;;;4.97;4.47;;;33.30;19.90;;;;;;5037763;28;20453;-87
2021/04/26 12:38:39;;;;;;;5.53;5.03;;;32.80;20.10;;;;;;5037790;28;20468;-87
2021/04/26 12:41:12;;;;;;;6.37;5.20;;;31.80;20.70;;;;;;5047560;28;20521;-87
2021/04/26 12:43:41;;;;;;;6.93;6.20;;;32.00;21.10;;;;;;5016999;28;20453;-87
2021/04/26 12:46:10;;;;;;;5.40;5.00;;;30.40;22.20;;;;;;5029052;28;20456;-94
2021/04/26 12:48:37;;;;;;;10.80;5.90;;;31.90;21.20;;;;;;5017420;28;20470;-89
2021/04/26 12:51:06;;;;;;;5.77;5.23;;;33.10;20.60;;;;;;5016633;28;20442;-86
2021/04/26 12:53:34;;;;;;;8.00;5.53;;;32.10;20.80;;;;;;5022794;28;20542;-88
2021/04/26 12:56:11;;;;;;;6.23;5.60;;;32.10;21.20;;;;;;5050318;28;20446;-88
2021/04/26 12:58:40;;;;;;;6.27;5.63;;;32.00;21.60;;;;;;5055657;28;20486;-88
2021/04/26 13:01:19;;;;;;;6.40;5.80;;;33.10;21.00;;;;;;5056684;28;20613;-88
2021/04/26 13:03:53;;;;;;;6.10;5.50;;;33.40;20.60;;;;;;5062590;28;20452;-88
2021/04/26 13:06:24;;;;;;;5.90;5.33;;;32.50;20.00;;;;;;5062866;28;20500;-88
2021/04/26 13:08:55;;;;;;;8.60;4.80;;;30.00;22.00;;;;;;5058857;28;20462;-88
2021/04/26 13:11:27;;;;;;;6.80;6.20;;;29.70;22.60;;;;;;5043710;28;20459;-88
2021/04/26 13:13:55;;;;;;;5.83;4.97;;;30.00;22.70;;;;;;5059381;28;20444;-88
2021/04/26 13:16:24;;;;;;;6.10;5.00;;;29.50;22.10;;;;;;5038722;28;20453;-87
2021/04/26 13:18:52;;;;;;;5.67;5.17;;;29.90;22.40;;;;;;5037219;28;20519;-88
2021/04/26 13:21:21;;;;;;;6.53;5.67;;;30.00;22.20;;;;;;5038801;28;20484;-88
2021/04/26 13:23:49;;;;;;;5.33;4.93;;;30.10;22.40;;;;;;5017441;28;20493;-88
2021/04/26 13:26:25;;;;;;;6.87;5.00;;;30.80;21.80;;;;;;5018530;28;21006;-85
2021/04/26 13:28:52;;;;;;;6.43;5.70;;;31.20;21.00;;;;;;5035759;28;20468;-86
2021/04/26 13:31:20;;;;;;;5.07;4.37;;;30.70;20.90;;;;;;5033671;28;20447;-86
2021/04/26 13:33:46;;;;;;;5.93;5.10;;;31.60;21.10;;;;;;5033610;28;20445;-86
2021/04/26 13:36:15;;;;;;;6.77;6.20;;;31.50;20.50;;;;;;5045035;28;20441;-86
2021/04/26 13:38:41;;;;;;;5.30;4.80;;;30.70;20.30;;;;;;5057847;28;20454;-86
2021/04/26 13:41:08;;;;;;;5.67;5.00;;;31.00;20.60;;;;;;5045905;28;20484;-85
2021/04/26 13:43:35;;;;;;;6.37;5.13;;;30.40;21.30;;;;;;5049511;28;20498;-87
2021/04/26 13:46:03;;;;;;;5.50;5.00;;;30.10;21.70;;;;;;5059038;28;20455;-87
2021/04/26 13:48:31;;;;;;;7.97;7.23;;;30.50;22.00;;;;;;5056294;28;20461;-88
2021/04/26 13:50:57;;;;;;;5.63;5.23;;;31.50;21.40;;;;;;5046067;28;20460;-89
2021/04/26 13:53:23;;;;;;;6.70;6.10;;;31.00;21.20;;;;;;5038433;28;20448;-88
2021/04/26 13:55:50;;;;;;;6.50;6.00;;;28.10;22.40;;;;;;5038261;28;20449;-86
2021/04/26 13:58:17;;;;;;;5.37;4.87;;;27.80;23.70;;;;;;5037219;28;20469;-82
2021/04/26 14:00:44;;;;;;;6.37;4.43;;;28.20;23.80;;;;;;5037076;28;20484;-85
2021/04/26 14:03:10;;;;;;;7.30;6.17;;;28.10;22.70;;;;;;5033958;28;20456;-84
2021/04/26 14:05:36;;;;;;;6.83;4.73;;;28.60;22.30;;;;;;5048001;28;20452;-85
2021/04/26 14:08:03;;;;;;;7.90;5.17;;;29.50;21.70;;;;;;5055905;28;20980;-85
2021/04/26 14:10:30;;;;;;;5.37;4.87;;;29.40;22.10;;;;;;5078026;28;20491;-84
2021/04/26 14:12:56;;;;;;;6.20;5.40;;;28.40;22.50;;;;;;5059977;28;20815;-83
2021/04/26 14:15:22;;;;;;;4.93;4.53;;;28.50;23.50;;;;;;5034107;28;20449;-84
2021/04/26 14:17:50;;;;;;;4.90;4.40;;;29.20;22.70;;;;;;5034661;28;20461;-85
2021/04/26 14:20:16;;;;;;;6.27;5.40;;;29.70;22.20;;;;;;5034450;28;20449;-85
2021/04/26 14:22:43;;;;;;;5.60;5.10;;;30.20;21.90;;;;;;5035268;28;20453;-85
2021/04/26 14:25:11;;;;;;;5.73;4.93;;;30.00;21.90;;;;;;5039619;28;20457;-85
2021/04/26 14:27:37;;;;;;;4.90;4.50;;;29.30;22.30;;;;;;5040935;28;20472;-81
2021/04/26 14:30:06;;;;;;;4.70;4.30;;;28.60;21.60;;;;;;5044025;28;20514;-83
2021/04/26 14:32:33;;;;;;;4.97;4.57;;;27.80;22.20;;;;;;5046288;28;20445;-83
2021/04/26 14:35:00;;;;;;;6.80;4.43;;;28.30;22.10;;;;;;5055268;28;20506;-82
2021/04/26 14:37:26;;;;;;;5.50;4.30;;;29.50;22.30;;;;;;5043503;28;20468;-82
2021/04/26 14:39:53;;;;;;;4.57;4.00;;;27.90;21.70;;;;;;5043477;28;20969;-82
2021/04/26 14:42:19;;;;;;;5.03;4.53;;;27.70;22.20;;;;;;5052767;28;20485;-81
2021/04/26 14:44:45;;;;;;;3.90;3.60;;;27.10;22.10;;;;;;5053278;28;20495;-82
2021/04/26 14:47:12;;;;;;;5.50;4.20;;;26.80;22.40;;;;;;5056228;28;20468;-82
2021/04/26 14:49:38;;;;;;;5.20;4.60;;;26.50;23.00;;;;;;5042373;28;20948;-82
2021/04/26 14:52:05;;;;;;;4.83;4.20;;;25.90;23.20;;;;;;5047472;28;20445;-82
2021/04/26 14:54:32;;;;;;;7.30;4.50;;;25.70;23.70;;;;;;5059298;28;20820;-83
2021/04/26 14:56:58;;;;;;;10.70;5.00;;;26.00;23.30;;;;;;5057972;28;20533;-83
2021/04/26 14:59:24;;;;;;;4.40;4.07;;;25.90;23.50;;;;;;5064694;28;20442;-83
2021/04/26 15:01:51;;;;;;;6.83;6.13;;;25.50;23.20;;;;;;5071841;28;20483;-82
2021/04/26 15:04:17;;;;;;;5.13;4.63;;;24.90;23.80;;;;;;5072659;28;20440;-84
2021/04/26 15:06:43;;;;;;;5.27;4.77;;;24.30;25.00;;;;;;5063101;28;20503;-84
2021/04/26 15:09:10;;;;;;;5.17;4.67;;;23.80;26.50;;;;;;5053336;28;20437;-83
2021/04/26 15:11:37;;;;;;;7.07;5.07;;;23.30;27.00;;;;;;5053842;28;20451;-83
2021/04/26 15:14:04;;;;;;;5.63;5.07;;;22.50;27.20;;;;;;5048083;28;20541;-82
2021/04/26 15:16:30;;;;;;;7.07;5.40;;;21.50;28.50;;;;;;5045300;28;20522;-82
2021/04/26 15:18:58;;;;;;;6.23;5.17;;;21.20;29.20;;;;;;5043534;28;20472;-83
2021/04/26 15:21:24;;;;;;;6.30;5.70;;;20.90;29.30;;;;;;5043454;28;20474;-83
2021/04/26 15:23:51;;;;;;;10.00;7.83;;;20.80;29.50;;;;;;5042632;28;20804;-82
2021/04/26 15:26:18;;;;;;;7.00;5.07;;;20.60;29.80;;;;;;5061074;28;20442;-83
2021/04/26 15:28:44;;;;;;;6.53;5.40;;;20.50;29.90;;;;;;5072426;28;20540;-81
2021/04/26 15:31:11;;;;;;;6.80;5.10;;;20.40;30.10;;;;;;5070671;28;20432;-83
2021/04/26 15:33:37;;;;;;;7.27;5.53;;;20.20;30.60;;;;;;5073062;28;20468;-82
2021/04/26 15:36:04;;;;;;;5.80;5.30;;;20.10;30.40;;;;;;5070029;28;20449;-83
2021/04/26 15:38:31;;;;;;;7.73;5.93;;;19.80;30.50;;;;;;5065762;28;20472;-82
2021/04/26 15:40:57;;;;;;;8.27;5.63;;;19.70;30.80;;;;;;5059510;28;20488;-83
2021/04/26 15:43:24;;;;;;;8.00;5.40;;;19.50;30.50;;;;;;5042315;28;20449;-83
2021/04/26 15:45:51;;;;;;;6.03;5.20;;;19.40;30.80;;;;;;5041117;28;20450;-83
2021/04/26 15:48:18;;;;;;;5.43;4.93;;;19.40;31.20;;;;;;5043620;28;20482;-81
2021/04/26 15:50:46;;;;;;;6.33;5.63;;;19.40;31.30;;;;;;5044678;28;20432;-88
2021/04/26 15:53:16;;;;;;;5.57;4.43;;;19.30;31.10;;;;;;5056415;28;20503;-84
2021/04/26 15:55:42;;;;;;;5.73;4.90;;;19.40;31.50;;;;;;5047290;28;20472;-86
2021/04/26 15:58:08;;;;;;;7.57;5.70;;;19.50;31.50;;;;;;5039879;28;20491;-85
2021/04/26 16:00:35;;;;;;;5.30;4.80;;;19.50;31.30;;;;;;5037720;28;20499;-86
2021/04/26 16:03:02;;;;;;;8.73;5.60;;;19.60;31.30;;;;;;5043015;28;20445;-87
2021/04/26 16:05:28;;;;;;;6.87;5.30;;;19.60;31.30;;;;;;5053287;28;20452;-85
2021/04/26 16:07:54;;;;;;;7.13;5.33;;;19.50;32.10;;;;;;5044207;28;20472;-85
2021/04/26 16:10:21;;;;;;;7.27;5.20;;;19.40;31.40;;;;;;5039747;28;20451;-86
2021/04/26 16:12:47;;;;;;;6.93;6.13;;;19.40;31.40;;;;;;5038752;28;20978;-86
2021/04/26 16:15:13;;;;;;;6.43;5.80;;;19.40;31.50;;;;;;5039928;28;20954;-86
2021/04/26 16:17:41;;;;;;;8.20;5.70;;;19.30;31.20;;;;;;5038126;28;20555;-85
2021/04/26 16:20:09;;;;;;;6.57;5.97;;;19.00;31.20;;;;;;5044996;28;20445;-85
2021/04/26 16:22:36;;;;;;;7.90;6.47;;;18.70;31.70;;;;;;5037508;28;20512;-84
2021/04/26 16:25:03;;;;;;;5.70;5.20;;;18.70;31.90;;;;;;5034709;28;20491;-86
2021/04/26 16:27:29;;;;;;;6.40;4.83;;;18.70;32.00;;;;;;5034351;28;20467;-85
2021/04/26 16:29:55;;;;;;;5.93;5.33;;;18.70;31.90;;;;;;5046071;28;20428;-85
2021/04/26 16:32:21;;;;;;;6.77;5.10;;;18.60;31.50;;;;;;5051816;28;20405;-85
2021/04/26 16:34:49;;;;;;;9.10;5.63;;;18.50;31.90;;;;;;5061950;28;20480;-85
2021/04/26 16:37:15;;;;;;;6.43;5.80;;;18.40;32.20;;;;;;5045382;28;20460;-84
2021/04/26 16:39:41;;;;;;;6.43;5.80;;;18.40;32.00;;;;;;5056572;28;20433;-85
2021/04/26 16:42:07;;;;;;;7.20;6.50;;;18.40;32.20;;;;;;5050805;28;20550;-85
2021/04/26 16:44:33;;;;;;;6.10;5.50;;;18.30;32.10;;;;;;5036481;28;20441;-85
2021/04/26 16:47:00;;;;;;;7.60;5.43;;;18.30;32.10;;;;;;5037040;28;20912;-85
2021/04/26 16:49:26;;;;;;;6.93;5.60;;;18.20;31.90;;;;;;5036803;28;20447;-84
2021/04/26 16:51:54;;;;;;;6.80;6.13;;;18.10;31.90;;;;;;5037792;28;20448;-85
2021/04/26 16:54:20;;;;;;;5.80;5.17;;;18.00;32.60;;;;;;5038489;28;20464;-86
2021/04/26 16:56:46;;;;;;;5.90;5.40;;;18.00;32.30;;;;;;5038004;28;20453;-85
2021/04/26 16:59:12;;;;;;;6.07;5.47;;;18.00;32.10;;;;;;5036085;28;20448;-86
2021/04/26 17:01:40;;;;;;;6.40;5.80;;;18.00;32.10;;;;;;5038032;28;20511;-86
2021/04/26 17:04:07;;;;;;;6.63;5.80;;;17.90;32.20;;;;;;5041547;28;20445;-86
2021/04/26 17:06:33;;;;;;;5.63;5.13;;;17.80;32.10;;;;;;5041106;28;20448;-86
2021/04/26 17:09:01;;;;;;;6.47;5.93;;;17.80;32.10;;;;;;5038629;28;20465;-86
2021/04/26 17:11:27;;;;;;;6.40;5.70;;;17.80;32.00;;;;;;5037271;28;20445;-86
2021/04/26 17:13:53;;;;;;;7.57;6.50;;;17.70;32.20;;;;;;5037139;28;20442;-91
2021/04/26 17:16:20;;;;;;;6.67;5.97;;;17.60;32.20;;;;;;5040062;28;20454;-87
2021/04/26 17:18:47;;;;;;;5.53;5.03;;;17.40;32.20;;;;;;5035714;28;20515;-87
2021/04/26 17:21:14;;;;;;;6.50;5.77;;;17.40;32.50;;;;;;5038599;28;20560;-87
2021/04/26 17:23:41;;;;;;;8.13;6.17;;;17.30;32.60;;;;;;5035451;28;20453;-86
2021/04/26 17:26:09;;;;;;;7.77;6.20;;;17.20;32.60;;;;;;5039895;28;20434;-86
2021/04/26 17:28:36;;;;;;;9.17;5.83;;;17.20;32.50;;;;;;5042666;28;20472;-86
2021/04/26 17:31:03;;;;;;;6.90;6.00;;;16.90;32.90;;;;;;5056705;28;20456;-86
2021/04/26 17:33:31;;;;;;;6.60;5.50;;;16.80;33.10;;;;;;5055931;28;20433;-86
2021/04/26 17:35:58;;;;;;;7.60;5.90;;;16.70;33.50;;;;;;5054544;28;20735;-87
2021/04/26 17:38:25;;;;;;;6.87;6.07;;;16.70;33.50;;;;;;5055216;28;20473;-86
2021/04/26 17:40:51;;;;;;;10.73;6.03;;;16.70;33.80;;;;;;5056060;28;20468;-86
2021/04/26 17:43:19;;;;;;;6.63;5.27;;;16.60;34.10;;;;;;5054097;28;20451;-87
2021/04/26 17:45:52;;;;;;;10.13;5.87;;;16.60;34.10;;;;;;5055976;28;20449;-87
2021/04/26 17:48:18;;;;;;;5.93;4.73;;;16.50;34.20;;;;;;5054874;28;20549;-86
2021/04/26 17:50:45;;;;;;;8.07;5.23;;;16.50;34.40;;;;;;5051819;28;20549;-89
2021/04/26 17:53:12;;;;;;;5.53;5.00;;;16.50;34.70;;;;;;5051018;28;20441;-89
2021/04/26 17:55:39;;;;;;;6.00;5.50;;;16.50;34.60;;;;;;5052301;28;20446;-88
2021/04/26 17:58:06;;;;;;;6.60;5.80;;;16.40;34.70;;;;;;5058905;28;20457;-89
2021/04/26 18:00:35;;;;;;;6.87;5.60;;;16.30;34.70;;;;;;5054205;28;20460;-88
2021/04/26 18:03:02;;;;;;;5.27;4.70;;;16.20;34.70;;;;;;5040357;28;20449;-89
2021/04/26 18:05:30;;;;;;;5.50;4.80;;;16.00;34.70;;;;;;5039506;28;20929;-89
2021/04/26 18:07:57;;;;;;;8.73;5.10;;;15.90;35.20;;;;;;5040875;28;20480;-90
2021/04/26 18:10:24;;;;;;;10.43;5.70;;;15.80;35.30;;;;;;5039643;28;20536;-89
2021/04/26 18:12:52;;;;;;;7.37;5.67;;;15.80;35.40;;;;;;5038592;28;20453;-89
2021/04/26 18:15:20;;;;;;;4.77;4.37;;;15.60;35.60;;;;;;5051536;28;20806;-89
2021/04/26 18:17:47;;;;;;;10.00;4.77;;;15.60;35.70;;;;;;5055211;28;21148;-87
2021/04/26 18:20:16;;;;;;;6.33;4.60;;;15.50;35.80;;;;;;5037696;28;21021;-87
2021/04/26 18:22:42;;;;;;;5.30;4.80;;;15.40;35.80;;;;;;5037512;28;20484;-86
2021/04/26 18:25:10;;;;;;;5.40;4.53;;;15.40;35.80;;;;;;5038090;28;20446;-86
2021/04/26 18:27:37;;;;;;;4.67;4.23;;;15.30;35.80;;;;;;5036769;28;20476;-87
2021/04/26 18:30:05;;;;;;;7.37;4.67;;;15.30;36.10;;;;;;5038344;28;20445;-87
2021/04/26 18:32:31;;;;;;;4.90;4.10;;;15.20;36.10;;;;;;5057155;28;20448;-87
2021/04/26 18:34:58;;;;;;;5.27;4.33;;;15.10;36.80;;;;;;5062944;28;20478;-87
2021/04/26 18:37:25;;;;;;;4.97;3.90;;;15.10;36.30;;;;;;5075178;28;20465;-86
2021/04/26 18:39:51;;;;;;;8.20;7.40;;;14.90;36.40;;;;;;5067601;28;20443;-87
2021/04/26 18:42:17;;;;;;;11.30;4.87;;;14.90;36.70;;;;;;5058615;28;20484;-86
2021/04/26 18:44:44;;;;;;;6.03;5.20;;;14.80;36.90;;;;;;5053089;28;20498;-87
2021/04/26 18:47:12;;;;;;;7.87;4.63;;;14.80;36.80;;;;;;5052637;28;20469;-86
2021/04/26 18:49:38;;;;;;;5.00;4.60;;;14.70;36.70;;;;;;5041611;28;21006;-87
2021/04/26 18:52:07;;;;;;;8.03;5.17;;;14.60;37.00;;;;;;5040181;28;20447;-85
2021/04/26 18:54:33;;;;;;;5.20;4.70;;;14.60;37.10;;;;;;5055243;28;20429;-87
2021/04/26 18:57:00;;;;;;;7.50;5.03;;;14.60;37.30;;;;;;5056478;28;20447;-87
2021/04/26 18:59:26;;;;;;;5.60;4.70;;;14.50;37.10;;;;;;5046323;28;20484;-86
2021/04/26 19:01:52;;;;;;;4.40;3.47;;;14.40;37.10;;;;;;5058011;28;20470;-86
2021/04/26 19:04:18;;;;;;;6.10;4.60;;;14.40;36.90;;;;;;5077033;28;20494;-86
2021/04/26 19:06:44;;;;;;;6.80;4.90;;;14.40;37.10;;;;;;5065566;28;20444;-86
2021/04/26 19:09:12;;;;;;;6.10;4.47;;;14.30;37.00;;;;;;5059284;28;20506;-88
2021/04/26 19:11:43;;;;;;;8.00;4.63;;;14.20;37.10;;;;;;5059338;28;20435;-88
2021/04/26 19:14:10;;;;;;;7.87;4.13;;;14.10;37.80;;;;;;5058035;28;20448;-89
2021/04/26 19:16:36;;;;;;;5.53;4.50;;;14.10;38.40;;;;;;5057661;28;20490;-89
2021/04/26 19:19:05;;;;;;;4.97;3.67;;;14.10;37.30;;;;;;5049140;28;20470;-89
2021/04/26 19:21:32;;;;;;;6.23;4.33;;;14.10;37.10;;;;;;5057289;28;20475;-92
2021/04/26 19:23:58;;;;;;;7.87;4.83;;;14.00;37.00;;;;;;5058231;28;20429;-91
2021/04/26 19:26:27;;;;;;;5.47;4.13;;;14.00;37.30;;;;;;5054752;28;20799;-89
2021/04/26 19:28:54;;;;;;;10.03;4.43;;;13.80;37.00;;;;;;5055481;28;20466;-90
2021/04/26 19:31:20;;;;;;;4.97;4.40;;;13.90;37.50;;;;;;5051282;28;20450;-90
2021/04/26 19:33:47;;;;;;;4.70;4.17;;;13.80;37.20;;;;;;5039823;28;20445;-89
2021/04/26 19:36:13;;;;;;;5.20;4.23;;;13.80;37.60;;;;;;5038898;28;20458;-89
2021/04/26 19:38:39;;;;;;;6.90;4.97;;;13.70;37.50;;;;;;5038568;28;20461;-89
2021/04/26 19:41:07;;;;;;;6.10;5.27;;;13.60;37.90;;;;;;5040056;28;20488;-89
2021/04/26 19:43:34;;;;;;;5.70;4.40;;;13.60;38.10;;;;;;5038730;28;20460;-89
2021/04/26 19:46:00;;;;;;;5.77;4.17;;;13.60;38.00;;;;;;5039425;28;20840;-86
2021/04/26 19:48:27;;;;;;;6.20;4.03;;;13.50;37.80;;;;;;5049183;28;20451;-86